Time;durP1;ratioP1;P1;durP2;ratioP2;P2;SDS_P1;SDS_P2;PMS_P1;PMS_P2;Temp;Humidity;BMP_temperature;BMP_pressure;BME280_temperature;BME280_humidity;BME280_pressure;Samples;Min_cycle;Max_cycle;Signal;HPM_P1;HPM_P2
2022/01/16 00:00:17;;;;;;;;;;;;;;;;;;6216191;23;19942;-76
2022/01/16 00:05:24;;;;;;;;;;;;;;;;;;6216324;23;19904;-76
2022/01/16 00:07:50;;;;;;;;;;;;;;;;;;6215937;23;20318;-76
2022/01/16 00:10:18;;;;;;;;;;;;;;;;;;6216243;23;19904;-76
2022/01/16 00:12:47;;;;;;;;;;;;;;;;;;6189363;23;19950;-76
2022/01/16 00:15:13;;;;;;;;;;;;;;;;;;6216270;23;19908;-76
2022/01/16 00:17:51;;;;;;;;;;;;;;;;;;6216535;23;19908;-76
2022/01/16 00:20:17;;;;;;;;;;;;;;;;;;6216455;23;19904;-76
2022/01/16 00:22:45;;;;;;;;;;;;;;;;;;6215818;23;20373;-76
2022/01/16 00:25:10;;;;;;;;;;;;;;;;;;6215924;23;20203;-76
2022/01/16 00:27:36;;;;;;;;;;;;;;;;;;6216099;23;19958;-76
2022/01/16 00:30:02;;;;;;;;;;;;;;;;;;6216105;23;19990;-76
2022/01/16 00:32:28;;;;;;;;;;;;;;;;;;6216177;23;19979;-75
2022/01/16 00:34:54;;;;;;;;;;;;;;;;;;6216200;23;19981;-76
2022/01/16 00:37:20;;;;;;;;;;;;;;;;;;6215937;23;20595;-76
2022/01/16 00:39:46;;;;;;;;;;;;;;;;;;6215947;23;19995;-76
2022/01/16 00:42:12;;;;;;;;;;;;;;;;;;6215578;23;19908;-76
2022/01/16 00:44:38;;;;;;;;;;;;;;;;;;6216183;23;20306;-75
2022/01/16 00:47:03;;;;;;;;;;;;;;;;;;6215808;23;19911;-76
2022/01/16 00:49:31;;;;;;;;;;;;;;;;;;6215547;23;19911;-76
2022/01/16 00:51:57;;;;;;;;;;;;;;;;;;6216336;23;19911;-76
2022/01/16 00:54:22;;;;;;;;;;;;;;;;;;6215646;23;19904;-76
2022/01/16 00:56:48;;;;;;;;;;;;;;;;;;6215997;23;19914;-76
2022/01/16 00:59:14;;;;;;;;;;;;;;;;;;6215485;23;19904;-76
2022/01/16 01:01:40;;;;;;;;;;;;;;;;;;6216045;23;19953;-76
2022/01/16 01:04:06;;;;;;;;;;;;;;;;;;6215148;23;19926;-76
2022/01/16 01:06:32;;;;;;;;;;;;;;;;;;6215837;23;19907;-76
2022/01/16 01:08:58;;;;;;;;;;;;;;;;;;6216317;23;19904;-76
2022/01/16 01:11:27;;;;;;;;;;;;;;;;;;6215104;23;19958;-76
2022/01/16 01:16:53;;;;;;;;;;;;;;;;;;6214856;23;19912;-76
2022/01/16 01:19:19;;;;;;;;;;;;;;;;;;6214846;23;19904;-75
2022/01/16 01:21:45;;;;;;;;;;;;;;;;;;6215200;23;19916;-76
2022/01/16 01:24:11;;;;;;;;;;;;;;;;;;6188360;23;19908;-75
2022/01/16 01:26:45;;;;;;;;;;;;;;;;;;6189145;23;19904;-76
2022/01/16 01:29:16;;;;;;;;;;;;;;;;;;6215363;23;20254;-76
2022/01/16 01:31:42;;;;;;;;;;;;;;;;;;6215853;23;20179;-76
2022/01/16 01:34:07;;;;;;;;;;;;;;;;;;6215149;23;19943;-76
2022/01/16 01:36:33;;;;;;;;;;;;;;;;;;6215525;23;19915;-76
2022/01/16 01:38:59;;;;;;;;;;;;;;;;;;6215799;23;19904;-75
2022/01/16 01:41:28;;;;;;;;;;;;;;;;;;6215382;23;20241;-76
2022/01/16 01:52:08;;;;;;;;;;;;;;;;;;6215421;23;19987;-76
2022/01/16 01:54:33;;;;;;;;;;;;;;;;;;6215449;23;19927;-76
2022/01/16 01:57:00;;;;;;;;;;;;;;;;;;6188871;23;19908;-77
2022/01/16 01:59:26;;;;;;;;;;;;;;;;;;6214819;23;19939;-76
2022/01/16 02:01:52;;;;;;;;;;;;;;;;;;6214187;23;19912;-76
2022/01/16 02:04:18;;;;;;;;;;;;;;;;;;6214089;23;19978;-76
2022/01/16 02:06:44;;;;;;;;;;;;;;;;;;6214122;23;19911;-76
2022/01/16 02:09:10;;;;;;;;;;;;;;;;;;6214141;23;19904;-75
2022/01/16 02:11:36;;;;;;;;;;;;;;;;;;6215205;23;19982;-76
2022/01/16 02:14:09;;;;;;;;;;;;;;;;;;6215436;23;19986;-76
2022/01/16 02:33:22;;;;;;;;;;;;;;;;;;6215429;23;19904;-76
2022/01/16 02:35:48;;;;;;;;;;;;;;;;;;6217154;23;20322;-76
2022/01/16 02:38:14;;;;;;;;;;;;;;;;;;6216935;23;19908;-76
2022/01/16 02:40:44;;;;;;;;;;;;;;;;;;6217087;23;19958;-76
2022/01/16 02:43:10;;;;;;;;;;;;;;;;;;6190468;23;20339;-76
2022/01/16 02:45:37;;;;;;;;;;;;;;;;;;6216961;23;19904;-76
2022/01/16 02:48:03;;;;;;;;;;;;;;;;;;6190540;23;19908;-76
2022/01/16 02:50:29;;;;;;;;;;;;;;;;;;6216996;23;19904;-76
2022/01/16 02:52:55;;;;;;;;;;;;;;;;;;6217038;23;19904;-76
2022/01/16 02:55:21;;;;;;;;;;;;;;;;;;6217054;23;20338;-76
2022/01/16 02:57:47;;;;;;;;;;;;;;;;;;6216887;23;19912;-75
2022/01/16 03:00:13;;;;;;;;;;;;;;;;;;6216614;23;19983;-76
2022/01/16 03:02:39;;;;;;;;;;;;;;;;;;6216972;23;19904;-76
2022/01/16 03:05:05;;;;;;;;;;;;;;;;;;6217152;23;19958;-76
2022/01/16 03:07:31;;;;;;;;;;;;;;;;;;6216743;23;19951;-76
2022/01/16 03:10:09;;;;;;;;;;;;;;;;;;6217204;23;19904;-76
2022/01/16 03:12:35;;;;;;;;;;;;;;;;;;6216452;23;19954;-76
2022/01/16 03:15:01;;;;;;;;;;;;;;;;;;6216201;23;19904;-76
2022/01/16 03:21:52;;;;;;;;;;;;;;;;;;6217089;23;19912;-76
2022/01/16 03:23:06;;;;;;;;;;;;;;;;;;6216835;23;19981;-76
2022/01/16 03:25:32;;;;;;;;;;;;;;;;;;6216671;23;20330;-76
2022/01/16 03:27:58;;;;;;;;;;;;;;;;;;6216844;23;19904;-76
2022/01/16 03:30:24;;;;;;;;;;;;;;;;;;6215405;23;19928;-76
2022/01/16 03:32:50;;;;;;;;;;;;;;;;;;6216711;23;19976;-76
2022/01/16 03:35:15;;;;;;;;;;;;;;;;;;6189903;23;19911;-75
2022/01/16 03:37:41;;;;;;;;;;;;;;;;;;6216260;23;19908;-76
2022/01/16 03:40:10;;;;;;;;;;;;;;;;;;6217303;23;20325;-76
2022/01/16 03:42:37;;;;;;;;;;;;;;;;;;6216398;23;19911;-76
2022/01/16 03:45:03;;;;;;;;;;;;;;;;;;6215895;23;19908;-76
2022/01/16 03:47:29;;;;;;;;;;;;;;;;;;6216368;23;19919;-76
2022/01/16 03:49:54;;;;;;;;;;;;;;;;;;6216383;23;20215;-76
2022/01/16 03:52:20;;;;;;;;;;;;;;;;;;6217116;23;19904;-76
2022/01/16 03:54:46;;;;;;;;;;;;;;;;;;6216626;23;19904;-76
2022/01/16 03:57:12;;;;;;;;;;;;;;;;;;6216063;23;19912;-76
2022/01/16 03:59:38;;;;;;;;;;;;;;;;;;6215991;23;20282;-76
2022/01/16 04:02:04;;;;;;;;;;;;;;;;;;6216327;23;19904;-76
2022/01/16 04:04:30;;;;;;;;;;;;;;;;;;6189407;23;20409;-76
2022/01/16 04:06:56;;;;;;;;;;;;;;;;;;6215845;23;19939;-76
2022/01/16 04:09:22;;;;;;;;;;;;;;;;;;6216351;23;19943;-76
2022/01/16 04:11:52;;;;;;;;;;;;;;;;;;6216255;23;20305;-75
2022/01/16 04:17:07;;;;;;;;;;;;;;;;;;6124238;23;19918;-76
2022/01/16 04:19:35;;;;;;;;;;;;;;;;;;6123923;23;20247;-76
2022/01/16 04:22:00;;;;;;;;;;;;;;;;;;6124013;23;19983;-76
2022/01/16 04:24:26;;;;;;;;;;;;;;;;;;6124100;23;20335;-76
2022/01/16 04:26:52;;;;;;;;;;;;;;;;;;6099263;23;19912;-76
2022/01/16 04:29:18;;;;;;;;;;;;;;;;;;6124394;23;19905;-76
2022/01/16 04:31:44;;;;;;;;;;;;;;;;;;6124075;23;19905;-76
2022/01/16 04:34:10;;;;;;;;;;;;;;;;;;6124381;23;20320;-76
2022/01/16 04:36:37;;;;;;;;;;;;;;;;;;6124372;23;19996;-76
2022/01/16 04:39:08;;;;;;;;;;;;;;;;;;6123464;23;19925;-76
2022/01/16 04:44:18;;;;;;;;;;;;;;;;;;6124320;23;19912;-76
2022/01/16 04:46:46;;;;;;;;;;;;;;;;;;6123429;23;20705;-76
2022/01/16 04:49:12;;;;;;;;;;;;;;;;;;6123824;23;20383;-76
2022/01/16 04:51:38;;;;;;;;;;;;;;;;;;6124012;23;19936;-76
2022/01/16 04:54:03;;;;;;;;;;;;;;;;;;6168902;23;19975;-76
2022/01/16 04:56:29;;;;;;;;;;;;;;;;;;6215366;23;19911;-76
2022/01/16 04:58:55;;;;;;;;;;;;;;;;;;6215681;23;19914;-76
2022/01/16 05:01:21;;;;;;;;;;;;;;;;;;6215645;23;20223;-76
2022/01/16 05:03:48;;;;;;;;;;;;;;;;;;6215606;23;19904;-76
2022/01/16 05:06:14;;;;;;;;;;;;;;;;;;6216372;23;19935;-76
2022/01/16 05:08:39;;;;;;;;;;;;;;;;;;6215424;23;19904;-76
2022/01/16 05:11:07;;;;;;;;;;;;;;;;;;6215600;23;19953;-76
2022/01/16 05:18:43;;;;;;;;;;;;;;;;;;6215444;23;19911;-76
2022/01/16 05:21:09;;;;;;;;;;;;;;;;;;6215473;23;19916;-76
2022/01/16 05:23:35;;;;;;;;;;;;;;;;;;6188908;23;20245;-76
2022/01/16 05:26:01;;;;;;;;;;;;;;;;;;6215466;23;20322;-76
2022/01/16 05:28:27;;;;;;;;;;;;;;;;;;6215485;23;19986;-76
2022/01/16 05:30:53;;;;;;;;;;;;;;;;;;6215379;23;19962;-76
2022/01/16 05:33:19;;;;;;;;;;;;;;;;;;6215650;23;19990;-76
2022/01/16 05:35:45;;;;;;;;;;;;;;;;;;6215455;23;19978;-76
2022/01/16 05:38:11;;;;;;;;;;;;;;;;;;6215687;23;20324;-76
2022/01/16 05:40:37;;;;;;;;;;;;;;;;;;6215007;23;19910;-76
2022/01/16 05:43:03;;;;;;;;;;;;;;;;;;6215663;23;19990;-76
2022/01/16 05:45:28;;;;;;;;;;;;;;;;;;6215386;23;20405;-76
2022/01/16 05:47:54;;;;;;;;;;;;;;;;;;6215546;23;19986;-76
2022/01/16 05:50:20;;;;;;;;;;;;;;;;;;6215464;23;19979;-76
2022/01/16 05:52:47;;;;;;;;;;;;;;;;;;6188776;23;20354;-76
2022/01/16 05:55:13;;;;;;;;;;;;;;;;;;6215021;23;19904;-76
2022/01/16 05:57:39;;;;;;;;;;;;;;;;;;6215128;23;19915;-76
2022/01/16 06:00:05;;;;;;;;;;;;;;;;;;6214707;23;19962;-76
2022/01/16 06:02:30;;;;;;;;;;;;;;;;;;6215366;23;19904;-76
2022/01/16 06:04:56;;;;;;;;;;;;;;;;;;6188598;23;19904;-76
2022/01/16 06:07:22;;;;;;;;;;;;;;;;;;6188572;23;19946;-76
2022/01/16 06:09:48;;;;;;;;;;;;;;;;;;6214789;23;19904;-76
2022/01/16 06:12:14;;;;;;;;;;;;;;;;;;6215158;23;19903;-76
2022/01/16 06:14:40;;;;;;;;;;;;;;;;;;6215412;23;20262;-76
2022/01/16 06:17:06;;;;;;;;;;;;;;;;;;6214913;23;19908;-76
2022/01/16 06:19:32;;;;;;;;;;;;;;;;;;6215267;23;19907;-76
2022/01/16 06:21:58;;;;;;;;;;;;;;;;;;6214500;23;19923;-76
2022/01/16 06:24:24;;;;;;;;;;;;;;;;;;6215247;23;19904;-76
2022/01/16 06:26:50;;;;;;;;;;;;;;;;;;6215165;23;19904;-76
2022/01/16 06:29:16;;;;;;;;;;;;;;;;;;6215120;23;19907;-76
2022/01/16 06:31:42;;;;;;;;;;;;;;;;;;6215380;23;19915;-76
2022/01/16 06:34:08;;;;;;;;;;;;;;;;;;6188457;23;19983;-76
2022/01/16 06:36:34;;;;;;;;;;;;;;;;;;6215350;23;20041;-76
2022/01/16 06:39:00;;;;;;;;;;;;;;;;;;6187752;23;19935;-76
2022/01/16 06:41:26;;;;;;;;;;;;;;;;;;6215373;23;19904;-76
2022/01/16 06:43:52;;;;;;;;;;;;;;;;;;6215097;23;20283;-76
2022/01/16 06:46:18;;;;;;;;;;;;;;;;;;6215623;23;19908;-76
2022/01/16 06:48:44;;;;;;;;;;;;;;;;;;6215254;23;19982;-76
2022/01/16 06:51:09;;;;;;;;;;;;;;;;;;6215075;23;20325;-76
2022/01/16 06:53:35;;;;;;;;;;;;;;;;;;6188236;23;19908;-76
2022/01/16 06:56:01;;;;;;;;;;;;;;;;;;6214792;23;19911;-76
2022/01/16 06:58:27;;;;;;;;;;;;;;;;;;6188498;23;19904;-76
2022/01/16 07:00:53;;;;;;;;;;;;;;;;;;6215287;23;19904;-76
2022/01/16 07:03:19;;;;;;;;;;;;;;;;;;6215530;23;19910;-76
2022/01/16 07:05:45;;;;;;;;;;;;;;;;;;6214929;23;19904;-76
2022/01/16 07:08:11;;;;;;;;;;;;;;;;;;6214255;23;19904;-76
2022/01/16 07:10:37;;;;;;;;;;;;;;;;;;6215085;23;19904;-77
2022/01/16 07:13:03;;;;;;;;;;;;;;;;;;6213579;23;19908;-76
2022/01/16 07:15:28;;;;;;;;;;;;;;;;;;6213790;23;19904;-76
2022/01/16 07:17:54;;;;;;;;;;;;;;;;;;6213995;23;19915;-76
2022/01/16 07:20:20;;;;;;;;;;;;;;;;;;6214228;23;19904;-77
2022/01/16 07:22:46;;;;;;;;;;;;;;;;;;6188932;23;20305;-76
2022/01/16 07:25:12;;;;;;;;;;;;;;;;;;6216382;23;19954;-76
2022/01/16 07:27:38;;;;;;;;;;;;;;;;;;6216564;23;19931;-76
2022/01/16 07:30:04;;;;;;;;;;;;;;;;;;6216500;23;19911;-76
2022/01/16 07:32:30;;;;;;;;;;;;;;;;;;6189845;23;19908;-76
2022/01/16 07:34:56;;;;;;;;;;;;;;;;;;6216588;23;19955;-76
2022/01/16 07:37:22;;;;;;;;;;;;;;;;;;6215919;23;19935;-76
2022/01/16 07:39:47;;;;;;;;;;;;;;;;;;6216736;23;19904;-76
2022/01/16 07:42:13;;;;;;;;;;;;;;;;;;6216207;23;19904;-76
2022/01/16 07:44:39;;;;;;;;;;;;;;;;;;6216059;23;19908;-76
2022/01/16 07:47:05;;;;;;;;;;;;;;;;;;6215429;23;20352;-76
2022/01/16 07:49:31;;;;;;;;;;;;;;;;;;6215485;23;19904;-76
2022/01/16 07:51:57;;;;;;;;;;;;;;;;;;6215541;23;19931;-76
2022/01/16 07:54:23;;;;;;;;;;;;;;;;;;6189881;23;20326;-76
2022/01/16 07:56:49;;;;;;;;;;;;;;;;;;6216335;23;19982;-76
2022/01/16 07:59:16;;;;;;;;;;;;;;;;;;6215947;23;19911;-76
2022/01/16 08:01:42;;;;;;;;;;;;;;;;;;6216053;23;20385;-76
2022/01/16 08:04:08;;;;;;;;;;;;;;;;;;6216242;23;19904;-76
2022/01/16 08:06:34;;;;;;;;;;;;;;;;;;6215186;23;19904;-76
2022/01/16 08:08:59;;;;;;;;;;;;;;;;;;6215548;23;19904;-76
2022/01/16 08:11:25;;;;;;;;;;;;;;;;;;6215952;23;20222;-76
2022/01/16 08:13:51;;;;;;;;;;;;;;;;;;6189718;23;19910;-76
2022/01/16 08:16:17;;;;;;;;;;;;;;;;;;6214801;23;19904;-77
2022/01/16 08:18:43;;;;;;;;;;;;;;;;;;6188994;23;20634;-77
2022/01/16 08:21:09;;;;;;;;;;;;;;;;;;6188007;23;19916;-77
2022/01/16 08:26:04;;;;;;;;;;;;;;;;;;6115186;23;20354;-81
2022/01/16 08:28:30;;;;;;;;;;;;;;;;;;6214026;23;19922;-81
2022/01/16 08:30:56;;;;;;;;;;;;;;;;;;6214256;23;20337;-83
2022/01/16 08:33:22;;;;;;;;;;;;;;;;;;6189076;23;19911;-82
2022/01/16 08:35:48;;;;;;;;;;;;;;;;;;6215747;23;19904;-80
2022/01/16 08:38:14;;;;;;;;;;;;;;;;;;6215715;23;20241;-82
2022/01/16 08:40:40;;;;;;;;;;;;;;;;;;6188087;23;19927;-79
2022/01/16 08:43:09;;;;;;;;;;;;;;;;;;6188757;23;20317;-83
2022/01/16 08:45:34;;;;;;;;;;;;;;;;;;6188389;23;20369;-85
2022/01/16 08:48:00;;;;;;;;;;;;;;;;;;6215626;23;19935;-83
2022/01/16 08:50:27;;;;;;;;;;;;;;;;;;6215473;23;19927;-83
2022/01/16 08:52:53;;;;;;;;;;;;;;;;;;6188841;23;19908;-82
2022/01/16 08:55:19;;;;;;;;;;;;;;;;;;6215692;23;19911;-81
2022/01/16 08:57:45;;;;;;;;;;;;;;;;;;6215304;23;19908;-80
2022/01/16 09:00:11;;;;;;;;;;;;;;;;;;6188990;23;20341;-79
2022/01/16 09:02:37;;;;;;;;;;;;;;;;;;6189358;23;19908;-80
2022/01/16 09:05:03;;;;;;;;;;;;;;;;;;6216184;23;19903;-79
2022/01/16 09:07:29;;;;;;;;;;;;;;;;;;6215371;23;19932;-78
2022/01/16 09:09:56;;;;;;;;;;;;;;;;;;6215535;23;20364;-79
2022/01/16 09:12:23;;;;;;;;;;;;;;;;;;6215828;23;19911;-78
2022/01/16 09:14:49;;;;;;;;;;;;;;;;;;6216024;23;19904;-78
2022/01/16 09:17:15;;;;;;;;;;;;;;;;;;6189351;23;20007;-80
2022/01/16 09:19:42;;;;;;;;;;;;;;;;;;6215764;23;19983;-80
2022/01/16 09:22:08;;;;;;;;;;;;;;;;;;6215834;23;19904;-80
2022/01/16 09:24:34;;;;;;;;;;;;;;;;;;6215126;23;19904;-80
2022/01/16 09:27:00;;;;;;;;;;;;;;;;;;6215293;23;20349;-80
2022/01/16 09:29:25;;;;;;;;;;;;;;;;;;6215857;23;19904;-80
2022/01/16 09:31:51;;;;;;;;;;;;;;;;;;6189418;23;19982;-80
2022/01/16 09:34:17;;;;;;;;;;;;;;;;;;6189382;23;19974;-79
2022/01/16 09:36:43;;;;;;;;;;;;;;;;;;6215598;23;20281;-78
2022/01/16 09:39:09;;;;;;;;;;;;;;;;;;6215496;23;19974;-80
2022/01/16 09:41:35;;;;;;;;;;;;;;;;;;6215865;23;20380;-81
2022/01/16 09:44:01;;;;;;;;;;;;;;;;;;6215090;23;20338;-80
2022/01/16 09:46:27;;;;;;;;;;;;;;;;;;6215819;23;19976;-80
2022/01/16 09:48:53;;;;;;;;;;;;;;;;;;6215726;23;20318;-80
2022/01/16 09:51:19;;;;;;;;;;;;;;;;;;6184870;23;19904;-80
2022/01/16 09:53:45;;;;;;;;;;;;;;;;;;6212976;23;19904;-79
2022/01/16 09:56:11;;;;;;;;;;;;;;;;;;6187440;23;19904;-80
2022/01/16 09:58:39;;;;;;;;;;;;;;;;;;6188133;23;19983;-79
2022/01/16 10:01:05;;;;;;;;;;;;;;;;;;6215109;23;19915;-80
2022/01/16 10:03:30;;;;;;;;;;;;;;;;;;6214588;23;19930;-80
2022/01/16 10:05:56;;;;;;;;;;;;;;;;;;6214219;23;20326;-78
2022/01/16 10:08:22;;;;;;;;;;;;;;;;;;6215388;23;19904;-78
2022/01/16 10:10:50;;;;;;;;;;;;;;;;;;6215146;23;19926;-78
2022/01/16 10:13:15;;;;;;;;;;;;;;;;;;6212053;23;20334;-78
2022/01/16 10:15:41;;;;;;;;;;;;;;;;;;6213994;23;19911;-78
2022/01/16 10:18:07;;;;;;;;;;;;;;;;;;6212330;23;19915;-77
2022/01/16 10:20:33;;;;;;;;;;;;;;;;;;6188108;23;20241;-77
2022/01/16 10:23:00;;;;;;;;;;;;;;;;;;6214648;23;19911;-77
2022/01/16 10:25:26;;;;;;;;;;;;;;;;;;6214988;23;19995;-77
2022/01/16 10:27:52;;;;;;;;;;;;;;;;;;6214684;23;19939;-77
2022/01/16 10:30:18;;;;;;;;;;;;;;;;;;6214535;23;20246;-77
2022/01/16 10:32:44;;;;;;;;;;;;;;;;;;6188226;23;19943;-78
2022/01/16 10:35:10;;;;;;;;;;;;;;;;;;6214811;23;19995;-75
2022/01/16 10:37:36;;;;;;;;;;;;;;;;;;6215217;23;19908;-78
2022/01/16 10:40:02;;;;;;;;;;;;;;;;;;6214144;23;19983;-77
2022/01/16 10:42:28;;;;;;;;;;;;;;;;;;6188427;23;20341;-80
2022/01/16 10:44:53;;;;;;;;;;;;;;;;;;6188167;23;19979;-80
2022/01/16 10:47:19;;;;;;;;;;;;;;;;;;6214704;23;20334;-80
2022/01/16 10:49:45;;;;;;;;;;;;;;;;;;6214678;23;19908;-80
2022/01/16 10:52:11;;;;;;;;;;;;;;;;;;6214966;23;19911;-81
2022/01/16 10:54:37;;;;;;;;;;;;;;;;;;6188688;23;19911;-80
2022/01/16 10:57:03;;;;;;;;;;;;;;;;;;6216735;23;19912;-80
2022/01/16 10:59:29;;;;;;;;;;;;;;;;;;6189823;23;19904;-77
2022/01/16 11:01:55;;;;;;;;;;;;;;;;;;6217163;23;19963;-79
2022/01/16 11:04:20;;;;;;;;;;;;;;;;;;6215862;23;19954;-80
2022/01/16 11:06:47;;;;;;;;;;;;;;;;;;6216703;23;20219;-79
2022/01/16 11:09:13;;;;;;;;;;;;;;;;;;6216319;23;19904;-79
2022/01/16 11:11:39;;;;;;;;;;;;;;;;;;6216782;23;19926;-80
2022/01/16 11:14:06;;;;;;;;;;;;;;;;;;6216923;23;19911;-79
2022/01/16 11:16:32;;;;;;;;;;;;;;;;;;6216588;23;19908;-80
2022/01/16 11:18:58;;;;;;;;;;;;;;;;;;6189633;23;19928;-78
2022/01/16 11:21:32;;;;;;;;;;;;;;;;;;6216339;23;19914;-78
2022/01/16 11:24:23;;;;;;;;;;;;;;;;;;6189687;23;20227;-80
2022/01/16 11:26:48;;;;;;;;;;;;;;;;;;6216044;23;19916;-77
2022/01/16 11:29:14;;;;;;;;;;;;;;;;;;6189983;23;19908;-78
2022/01/16 11:31:43;;;;;;;;;;;;;;;;;;6216307;23;19914;-78
2022/01/16 11:34:09;;;;;;;;;;;;;;;;;;6214510;23;19904;-79
2022/01/16 11:36:35;;;;;;;;;;;;;;;;;;6216258;23;19991;-80
2022/01/16 11:39:01;;;;;;;;;;;;;;;;;;6189866;23;19980;-80
2022/01/16 11:41:32;;;;;;;;;;;;;;;;;;6215714;23;20250;-79
2022/01/16 11:43:58;;;;;;;;;;;;;;;;;;6216681;23;20388;-78
2022/01/16 11:46:24;;;;;;;;;;;;;;;;;;6189366;23;19939;-79
2022/01/16 11:48:51;;;;;;;;;;;;;;;;;;6188718;23;19904;-79
2022/01/16 11:51:17;;;;;;;;;;;;;;;;;;6215194;23;19904;-79
2022/01/16 11:53:43;;;;;;;;;;;;;;;;;;6216175;23;20238;-80
2022/01/16 11:56:09;;;;;;;;;;;;;;;;;;6215905;23;19911;-79
2022/01/16 11:58:35;;;;;;;;;;;;;;;;;;6215741;23;19912;-80
2022/01/16 12:01:01;;;;;;;;;;;;;;;;;;6215762;23;19904;-79
2022/01/16 12:03:27;;;;;;;;;;;;;;;;;;6188605;23;19911;-79
2022/01/16 12:05:56;;;;;;;;;;;;;;;;;;6215911;23;19904;-79
2022/01/16 12:08:22;;;;;;;;;;;;;;;;;;6215551;23;19908;-79
2022/01/16 12:10:50;;;;;;;;;;;;;;;;;;6189587;23;19904;-79
2022/01/16 12:13:16;;;;;;;;;;;;;;;;;;6215883;23;20352;-78
2022/01/16 12:15:42;;;;;;;;;;;;;;;;;;6215991;23;19904;-79
2022/01/16 12:18:08;;;;;;;;;;;;;;;;;;6215371;23;19908;-80
2022/01/16 12:20:34;;;;;;;;;;;;;;;;;;6215019;23;20326;-79
2022/01/16 12:23:00;;;;;;;;;;;;;;;;;;6215871;23;19958;-79
2022/01/16 12:25:25;;;;;;;;;;;;;;;;;;6188554;23;19923;-79
2022/01/16 12:27:51;;;;;;;;;;;;;;;;;;6215555;23;19904;-79
2022/01/16 12:30:17;;;;;;;;;;;;;;;;;;6215677;23;19904;-80
2022/01/16 12:32:43;;;;;;;;;;;;;;;;;;6215390;23;19904;-79
2022/01/16 12:35:09;;;;;;;;;;;;;;;;;;6215793;23;19911;-79
2022/01/16 12:37:35;;;;;;;;;;;;;;;;;;6189008;23;19916;-80
2022/01/16 12:40:01;;;;;;;;;;;;;;;;;;6214219;23;20369;-79
2022/01/16 12:42:27;;;;;;;;;;;;;;;;;;6213322;23;19914;-79
2022/01/16 12:44:53;;;;;;;;;;;;;;;;;;6214057;23;19904;-79
2022/01/16 12:47:19;;;;;;;;;;;;;;;;;;6212747;23;19904;-80
2022/01/16 12:49:47;;;;;;;;;;;;;;;;;;6187311;23;20341;-79
2022/01/16 12:52:14;;;;;;;;;;;;;;;;;;6213065;23;19975;-79
2022/01/16 12:54:40;;;;;;;;;;;;;;;;;;6214056;23;19911;-79
2022/01/16 12:57:06;;;;;;;;;;;;;;;;;;6214522;23;20284;-79
2022/01/16 12:59:31;;;;;;;;;;;;;;;;;;6214283;23;19979;-79
2022/01/16 13:01:58;;;;;;;;;;;;;;;;;;6187646;23;19982;-80
2022/01/16 13:04:24;;;;;;;;;;;;;;;;;;6187132;23;19908;-80
2022/01/16 13:06:49;;;;;;;;;;;;;;;;;;6213853;23;19962;-80
2022/01/16 13:09:15;;;;;;;;;;;;;;;;;;6214569;23;19904;-80
2022/01/16 13:11:41;;;;;;;;;;;;;;;;;;6187533;23;20413;-80
2022/01/16 13:14:07;;;;;;;;;;;;;;;;;;6214206;23;19904;-79
2022/01/16 13:16:34;;;;;;;;;;;;;;;;;;6213704;23;19912;-79
2022/01/16 13:19:00;;;;;;;;;;;;;;;;;;6186872;23;19970;-80
2022/01/16 13:21:33;;;;;;;;;;;;;;;;;;6213259;23;19944;-78
2022/01/16 13:23:59;;;;;;;;;;;;;;;;;;6214133;23;19966;-79
2022/01/16 13:26:24;;;;;;;;;;;;;;;;;;6213855;23;19920;-79
2022/01/16 13:28:50;;;;;;;;;;;;;;;;;;6212438;23;19904;-79
2022/01/16 13:31:16;;;;;;;;;;;;;;;;;;6214010;23;19911;-80
2022/01/16 13:33:42;;;;;;;;;;;;;;;;;;6213666;23;20262;-80
2022/01/16 13:36:08;;;;;;;;;;;;;;;;;;6187307;23;19904;-80
2022/01/16 13:38:34;;;;;;;;;;;;;;;;;;6213939;23;19916;-78
2022/01/16 13:41:00;;;;;;;;;;;;;;;;;;6187048;23;20384;-79
2022/01/16 13:43:26;;;;;;;;;;;;;;;;;;6213871;23;20011;-79
2022/01/16 13:45:52;;;;;;;;;;;;;;;;;;6186244;23;19911;-80
2022/01/16 13:48:18;;;;;;;;;;;;;;;;;;6213937;23;19904;-80
2022/01/16 13:50:44;;;;;;;;;;;;;;;;;;6214316;23;19911;-79
2022/01/16 13:53:10;;;;;;;;;;;;;;;;;;6213953;23;19903;-80
2022/01/16 13:55:35;;;;;;;;;;;;;;;;;;6213824;23;19978;-79
2022/01/16 13:58:01;;;;;;;;;;;;;;;;;;6213098;23;19908;-80
2022/01/16 14:00:27;;;;;;;;;;;;;;;;;;6213904;23;19904;-79
2022/01/16 14:02:53;;;;;;;;;;;;;;;;;;6213795;23;19904;-79
2022/01/16 14:05:19;;;;;;;;;;;;;;;;;;6213972;23;19930;-78
2022/01/16 14:07:45;;;;;;;;;;;;;;;;;;6213453;23;19912;-79
2022/01/16 14:10:11;;;;;;;;;;;;;;;;;;6213415;23;20326;-78
2022/01/16 14:12:37;;;;;;;;;;;;;;;;;;6214864;23;19910;-78
2022/01/16 14:15:02;;;;;;;;;;;;;;;;;;6214841;23;19911;-79
2022/01/16 14:17:40;;;;;;;;;;;;;;;;;;6214438;23;19908;-79
2022/01/16 14:20:25;;;;;;;;;;;;;;;;;;6188140;23;19904;-78
2022/01/16 14:22:51;;;;;;;;;;;;;;;;;;6214720;23;19911;-79
2022/01/16 14:25:17;;;;;;;;;;;;;;;;;;6187544;23;19916;-79
2022/01/16 14:27:43;;;;;;;;;;;;;;;;;;6187949;23;19904;-78
2022/01/16 14:30:10;;;;;;;;;;;;;;;;;;6215828;23;19904;-76
2022/01/16 14:32:36;;;;;;;;;;;;;;;;;;6217168;23;20241;-78
2022/01/16 14:35:02;;;;;;;;;;;;;;;;;;6216737;23;19906;-79
2022/01/16 14:37:29;;;;;;;;;;;;;;;;;;6216819;23;19914;-79
2022/01/16 14:39:55;;;;;;;;;;;;;;;;;;6190539;23;19915;-79
2022/01/16 14:42:21;;;;;;;;;;;;;;;;;;6189056;23;19908;-79
2022/01/16 14:44:47;;;;;;;;;;;;;;;;;;6216842;23;20249;-79
2022/01/16 14:47:13;;;;;;;;;;;;;;;;;;6216606;23;19983;-79
2022/01/16 14:49:39;;;;;;;;;;;;;;;;;;6217126;23;19911;-79
2022/01/16 14:52:04;;;;;;;;;;;;;;;;;;6217188;23;19955;-79
2022/01/16 14:54:30;;;;;;;;;;;;;;;;;;6216322;23;19904;-79
2022/01/16 14:56:56;;;;;;;;;;;;;;;;;;6189752;23;20246;-79
2022/01/16 14:59:22;;;;;;;;;;;;;;;;;;6216329;23;19910;-79
2022/01/16 15:04:17;;;;;;;;;;;;;;;;;;6216444;23;19994;-79
2022/01/16 15:06:43;;;;;;;;;;;;;;;;;;6216096;23;19939;-79
2022/01/16 15:09:09;;;;;;;;;;;;;;;;;;6216249;23;20349;-79
2022/01/16 15:11:35;;;;;;;;;;;;;;;;;;6215504;23;20245;-79
2022/01/16 15:14:01;;;;;;;;;;;;;;;;;;6216646;23;19908;-79
2022/01/16 15:16:27;;;;;;;;;;;;;;;;;;6216537;23;19908;-80
2022/01/16 15:18:55;;;;;;;;;;;;;;;;;;6216243;23;19904;-80
2022/01/16 15:21:29;;;;;;;;;;;;;;;;;;6216090;23;19926;-80
2022/01/16 15:23:55;;;;;;;;;;;;;;;;;;6216248;23;19915;-80
2022/01/16 15:26:21;;;;;;;;;;;;;;;;;;6215448;23;19920;-79
2022/01/16 15:28:47;;;;;;;;;;;;;;;;;;6216725;23;19954;-80
2022/01/16 15:31:13;;;;;;;;;;;;;;;;;;6216904;23;20380;-80
2022/01/16 15:33:39;;;;;;;;;;;;;;;;;;6189385;23;19974;-80
2022/01/16 15:36:05;;;;;;;;;;;;;;;;;;6216628;23;19984;-80
2022/01/16 15:38:31;;;;;;;;;;;;;;;;;;6216217;23;20385;-80
2022/01/16 15:40:57;;;;;;;;;;;;;;;;;;6215673;23;19904;-80
2022/01/16 15:43:22;;;;;;;;;;;;;;;;;;6216329;23;19931;-80
2022/01/16 15:45:48;;;;;;;;;;;;;;;;;;6189562;23;19931;-79
2022/01/16 15:48:14;;;;;;;;;;;;;;;;;;6216543;23;19939;-80
2022/01/16 15:50:40;;;;;;;;;;;;;;;;;;6216369;23;20043;-80
2022/01/16 15:53:07;;;;;;;;;;;;;;;;;;6216095;23;19908;-80
2022/01/16 15:55:33;;;;;;;;;;;;;;;;;;6189141;23;19912;-80
2022/01/16 15:57:59;;;;;;;;;;;;;;;;;;6216645;23;19908;-80
2022/01/16 16:00:25;;;;;;;;;;;;;;;;;;6216652;23;19910;-80
2022/01/16 16:02:51;;;;;;;;;;;;;;;;;;6216295;23;19911;-80
2022/01/16 16:05:18;;;;;;;;;;;;;;;;;;6189957;23;19904;-80
2022/01/16 16:07:44;;;;;;;;;;;;;;;;;;6215832;23;19904;-80
2022/01/16 16:10:11;;;;;;;;;;;;;;;;;;6189110;23;19904;-80
2022/01/16 16:12:37;;;;;;;;;;;;;;;;;;6216108;23;19904;-80
2022/01/16 16:15:03;;;;;;;;;;;;;;;;;;6189751;23;19911;-80
2022/01/16 16:17:29;;;;;;;;;;;;;;;;;;6216031;23;20318;-80
2022/01/16 16:19:54;;;;;;;;;;;;;;;;;;6215788;23;19904;-80
2022/01/16 16:22:23;;;;;;;;;;;;;;;;;;6216380;23;19904;-80
2022/01/16 16:24:49;;;;;;;;;;;;;;;;;;6214909;23;19904;-80
2022/01/16 16:27:15;;;;;;;;;;;;;;;;;;6189363;23;19912;-80
2022/01/16 16:29:41;;;;;;;;;;;;;;;;;;6215961;23;19904;-80
2022/01/16 16:32:07;;;;;;;;;;;;;;;;;;6215604;23;19904;-79
2022/01/16 16:34:33;;;;;;;;;;;;;;;;;;6216146;23;19918;-80
2022/01/16 16:36:59;;;;;;;;;;;;;;;;;;6215788;23;19908;-79
2022/01/16 16:39:24;;;;;;;;;;;;;;;;;;6215464;23;20239;-80
2022/01/16 16:41:51;;;;;;;;;;;;;;;;;;6215685;23;20281;-79
2022/01/16 16:44:17;;;;;;;;;;;;;;;;;;6215994;23;19904;-80
2022/01/16 16:46:43;;;;;;;;;;;;;;;;;;6215860;23;19950;-80
2022/01/16 16:49:08;;;;;;;;;;;;;;;;;;6188975;23;19935;-80
2022/01/16 16:51:34;;;;;;;;;;;;;;;;;;6216241;23;19923;-80
2022/01/16 16:54:00;;;;;;;;;;;;;;;;;;6214684;23;19904;-79
2022/01/16 16:56:27;;;;;;;;;;;;;;;;;;6215593;23;19915;-80
2022/01/16 16:58:53;;;;;;;;;;;;;;;;;;6215865;23;19904;-80
2022/01/16 17:01:19;;;;;;;;;;;;;;;;;;6215788;23;20365;-80
2022/01/16 17:03:45;;;;;;;;;;;;;;;;;;6189114;23;19954;-80
2022/01/16 17:06:12;;;;;;;;;;;;;;;;;;6215389;23;19904;-80
2022/01/16 17:08:38;;;;;;;;;;;;;;;;;;6215153;23;19911;-80
2022/01/16 17:11:03;;;;;;;;;;;;;;;;;;6215406;23;19904;-80
2022/01/16 17:13:29;;;;;;;;;;;;;;;;;;6189331;23;19904;-80
2022/01/16 17:15:55;;;;;;;;;;;;;;;;;;6188971;23;20344;-79
2022/01/16 17:18:23;;;;;;;;;;;;;;;;;;6215330;23;19907;-80
2022/01/16 17:20:49;;;;;;;;;;;;;;;;;;6215434;23;20256;-80
2022/01/16 17:23:15;;;;;;;;;;;;;;;;;;6188137;23;19911;-80
2022/01/16 17:25:42;;;;;;;;;;;;;;;;;;6188369;23;20312;-80
2022/01/16 17:28:08;;;;;;;;;;;;;;;;;;6188772;23;19931;-80